createdAt,value
2018-12-31T00:00:31.898Z,-4.20
2018-12-31T00:03:00.571Z,-4.10
2018-12-31T00:05:29.259Z,-4.10
2018-12-31T00:07:57.946Z,-4.10
2018-12-31T00:10:27.077Z,-4.20
2018-12-31T00:12:55.745Z,-4.10
2018-12-31T00:15:24.509Z,-4.20
2018-12-31T00:17:53.204Z,-4.20
2018-12-31T00:20:21.885Z,-4.20
2018-12-31T00:22:50.963Z,-4.20
2018-12-31T00:25:19.689Z,-4.20
2018-12-31T00:27:48.392Z,-4.20
2018-12-31T00:30:17.141Z,-4.20
2018-12-31T00:32:45.832Z,-4.20
2018-12-31T00:35:14.984Z,-4.30
2018-12-31T00:37:43.630Z,-4.20
2018-12-31T00:40:12.467Z,-4.30
2018-12-31T00:42:41.184Z,-4.30
2018-12-31T00:45:09.848Z,-4.30
2018-12-31T00:47:38.520Z,-4.30
2018-12-31T00:50:08.638Z,-4.30
2018-12-31T00:52:37.307Z,-4.30
2018-12-31T00:55:05.984Z,-4.30
2018-12-31T00:57:34.859Z,-4.30
2018-12-31T01:00:03.535Z,-4.30
2018-12-31T01:02:32.479Z,-4.30
2018-12-31T01:05:01.158Z,-4.30
2018-12-31T01:07:29.889Z,-4.30
2018-12-31T01:09:58.566Z,-4.30
2018-12-31T01:12:27.285Z,-4.30
2018-12-31T01:14:55.963Z,-4.30
2018-12-31T01:17:24.612Z,-4.30
2018-12-31T01:19:53.382Z,-4.20
2018-12-31T01:22:22.078Z,-4.20
2018-12-31T01:24:50.866Z,-4.20
2018-12-31T01:27:19.509Z,-4.20
2018-12-31T01:29:48.208Z,-4.20
2018-12-31T01:32:16.903Z,-4.20
2018-12-31T01:34:47.156Z,-4.30
2018-12-31T01:37:15.868Z,-4.30
2018-12-31T01:39:44.565Z,-4.30
2018-12-31T01:42:13.210Z,-4.30
2018-12-31T01:44:41.939Z,-4.30
2018-12-31T01:47:10.617Z,-4.20
2018-12-31T01:49:39.306Z,-4.20
2018-12-31T01:52:08.002Z,-4.20
2018-12-31T01:54:36.692Z,-4.20
2018-12-31T01:57:05.411Z,-4.20
2018-12-31T01:59:34.046Z,-4.30
2018-12-31T02:02:04.485Z,-4.30
2018-12-31T02:04:33.106Z,-4.30
2018-12-31T02:07:01.706Z,-4.30
2018-12-31T02:09:30.383Z,-4.20
2018-12-31T02:11:59.048Z,-4.20
2018-12-31T02:14:27.810Z,-4.20
2018-12-31T02:16:57.117Z,-4.30
2018-12-31T02:19:25.793Z,-4.30
2018-12-31T02:21:54.496Z,-4.30
2018-12-31T02:24:23.212Z,-4.30
2018-12-31T02:26:51.882Z,-4.30
2018-12-31T02:29:20.568Z,-4.30
2018-12-31T02:31:49.651Z,-4.30
2018-12-31T02:34:18.341Z,-4.20
2018-12-31T02:36:48.043Z,-4.20
2018-12-31T02:39:16.742Z,-4.30
2018-12-31T02:41:45.427Z,-4.30
2018-12-31T02:44:14.089Z,-4.30
2018-12-31T02:46:42.780Z,-4.30
2018-12-31T02:49:11.504Z,-4.40
2018-12-31T02:51:40.186Z,-4.40
2018-12-31T02:54:08.900Z,-4.40
2018-12-31T02:56:37.601Z,-4.30
2018-12-31T02:59:06.274Z,-4.30
2018-12-31T03:01:34.978Z,-4.30
2018-12-31T03:04:03.642Z,-4.30
2018-12-31T03:06:32.822Z,-4.30
2018-12-31T03:09:01.506Z,-4.20
2018-12-31T03:11:30.165Z,-4.20
2018-12-31T03:13:58.845Z,-4.30
2018-12-31T03:16:27.513Z,-4.30
2018-12-31T03:18:56.203Z,-4.20
2018-12-31T03:21:24.889Z,-4.20
2018-12-31T03:23:53.640Z,-4.20
2018-12-31T03:26:22.314Z,-4.20
2018-12-31T03:28:51.012Z,-4.20
2018-12-31T03:31:19.694Z,-4.20
2018-12-31T03:33:48.386Z,-4.20
2018-12-31T03:36:17.007Z,-4.20
2018-12-31T03:38:45.652Z,-4.20
2018-12-31T03:41:14.382Z,-4.20
2018-12-31T03:43:43.122Z,-4.20
2018-12-31T03:46:11.790Z,-4.20
2018-12-31T03:48:40.481Z,-4.20
2018-12-31T03:51:09.167Z,-4.20
2018-12-31T03:53:37.868Z,-4.10
2018-12-31T03:56:06.537Z,-4.10
2018-12-31T03:58:35.495Z,-4.10
2018-12-31T04:01:04.186Z,-4.10
2018-12-31T04:03:32.846Z,-4.20
2018-12-31T04:06:01.533Z,-4.20
2018-12-31T04:08:30.206Z,-4.20
2018-12-31T04:10:58.931Z,-4.20
2018-12-31T04:13:27.594Z,-4.20
2018-12-31T04:15:56.754Z,-4.20
2018-12-31T04:18:25.455Z,-4.20
2018-12-31T04:20:54.119Z,-4.20
2018-12-31T04:23:22.885Z,-4.20
2018-12-31T04:25:51.533Z,-4.20
2018-12-31T04:28:23.285Z,-4.20
2018-12-31T04:30:54.227Z,-4.20
2018-12-31T04:33:22.888Z,-4.20
2018-12-31T04:35:51.620Z,-4.30
2018-12-31T04:38:21.604Z,-4.20
2018-12-31T04:40:50.351Z,-4.20
2018-12-31T04:43:22.040Z,-4.10
2018-12-31T04:45:50.729Z,-4.20
2018-12-31T04:48:19.510Z,-4.20
2018-12-31T04:50:48.176Z,-4.20
2018-12-31T04:53:16.909Z,-4.20
2018-12-31T04:55:45.633Z,-4.30
2018-12-31T04:58:22.787Z,-4.30
2018-12-31T05:00:44.635Z,-4.30
2018-12-31T05:03:13.306Z,-4.30
2018-12-31T05:05:43.601Z,-4.30
2018-12-31T05:08:12.264Z,-4.30
2018-12-31T05:10:40.941Z,-4.30
2018-12-31T05:13:09.676Z,-4.30
2018-12-31T05:15:38.360Z,-4.30
2018-12-31T05:18:07.022Z,-4.30
2018-12-31T05:20:35.758Z,-4.30
2018-12-31T05:23:05.576Z,-4.40
2018-12-31T05:25:34.507Z,-4.30
2018-12-31T05:28:03.514Z,-4.30
2018-12-31T05:30:32.231Z,-4.30
2018-12-31T05:33:00.883Z,-4.30
2018-12-31T05:35:29.620Z,-4.30
2018-12-31T05:37:58.320Z,-4.30
2018-12-31T05:40:27.075Z,-4.20
2018-12-31T05:42:56.070Z,-4.30
2018-12-31T05:45:24.828Z,-4.30
2018-12-31T05:47:53.486Z,-4.30
2018-12-31T05:50:22.214Z,-4.30
2018-12-31T05:52:50.903Z,-4.30
2018-12-31T05:55:19.575Z,-4.30
2018-12-31T05:57:48.528Z,-4.30
2018-12-31T06:00:17.224Z,-4.30
2018-12-31T06:02:45.892Z,-4.30
2018-12-31T06:05:14.809Z,-4.30
2018-12-31T06:07:43.465Z,-4.30
2018-12-31T06:10:12.722Z,-4.30
2018-12-31T06:12:41.454Z,-4.20
2018-12-31T06:15:10.130Z,-4.30
2018-12-31T06:17:39.184Z,-4.30
2018-12-31T06:20:07.862Z,-4.30
2018-12-31T06:22:36.545Z,-4.30
2018-12-31T06:25:05.357Z,-4.30
2018-12-31T06:27:34.745Z,-4.20
2018-12-31T06:30:04.169Z,-4.20
2018-12-31T06:32:32.917Z,-4.20
2018-12-31T06:35:01.590Z,-4.20
2018-12-31T06:37:30.295Z,-4.20
2018-12-31T06:39:59.122Z,-4.10
2018-12-31T06:42:27.788Z,-4.10
2018-12-31T06:44:56.560Z,-4.10
2018-12-31T06:47:25.706Z,-4.10
2018-12-31T06:49:54.367Z,-4.10
2018-12-31T06:52:23.067Z,-4.00
2018-12-31T06:54:51.798Z,-4.10
2018-12-31T06:57:20.513Z,-4.00
2018-12-31T06:59:49.184Z,-3.90
2018-12-31T07:02:18.336Z,-4.00
2018-12-31T07:04:47.065Z,-3.90
2018-12-31T07:07:15.791Z,-3.90
2018-12-31T07:09:44.902Z,-3.90
2018-12-31T07:12:13.718Z,-3.80
2018-12-31T07:14:42.388Z,-3.80
2018-12-31T07:17:11.180Z,-3.80
2018-12-31T07:19:40.510Z,-3.80
2018-12-31T07:22:09.280Z,-3.70
2018-12-31T07:24:38.229Z,-3.80
2018-12-31T07:27:07.058Z,-3.80
2018-12-31T07:29:35.689Z,-3.80
2018-12-31T07:32:05.926Z,-3.70
2018-12-31T07:34:34.722Z,-3.70
2018-12-31T07:37:03.411Z,-3.70
2018-12-31T07:39:33.631Z,-3.70
2018-12-31T07:42:02.330Z,-3.60
2018-12-31T07:44:32.368Z,-3.60
2018-12-31T07:47:01.059Z,-3.60
2018-12-31T07:49:29.744Z,-3.60
2018-12-31T07:51:58.439Z,-3.60
2018-12-31T07:54:27.139Z,-3.70
2018-12-31T07:56:55.848Z,-3.70
2018-12-31T07:59:24.805Z,-3.70
2018-12-31T08:01:53.474Z,-3.60
2018-12-31T08:04:22.141Z,-3.70
2018-12-31T08:06:50.907Z,-3.70
2018-12-31T08:09:19.616Z,-3.60
2018-12-31T08:11:48.293Z,-3.60
2018-12-31T08:14:17.040Z,-3.60
2018-12-31T08:16:45.703Z,-3.50
2018-12-31T08:19:14.391Z,-3.50
2018-12-31T08:21:43.095Z,-3.50
2018-12-31T08:24:11.762Z,-3.40
2018-12-31T08:26:40.445Z,-3.30
2018-12-31T08:29:09.158Z,-3.30
2018-12-31T08:31:37.805Z,-3.30
2018-12-31T08:34:06.480Z,-3.30
2018-12-31T08:36:35.151Z,-3.10
2018-12-31T08:39:05.533Z,-3.10
2018-12-31T08:41:34.267Z,-3.20
2018-12-31T08:44:03.517Z,-3.40
2018-12-31T08:46:32.332Z,-3.40
2018-12-31T08:49:00.999Z,-3.50
2018-12-31T08:51:29.692Z,-3.50
2018-12-31T08:53:58.409Z,-3.50
2018-12-31T08:56:27.135Z,-3.40
2018-12-31T08:58:58.301Z,-3.30
2018-12-31T09:01:27.012Z,-3.30
2018-12-31T09:03:55.778Z,-3.20
2018-12-31T09:06:24.450Z,-3.20
2018-12-31T09:08:53.150Z,-3.10
2018-12-31T09:11:21.820Z,-3.00
2018-12-31T09:13:50.703Z,-2.90
2018-12-31T09:16:19.387Z,-3.10
2018-12-31T09:18:48.077Z,-3.00
2018-12-31T09:21:16.795Z,-3.10
2018-12-31T09:23:45.556Z,-3.00
2018-12-31T09:26:14.222Z,-3.10
2018-12-31T09:28:42.902Z,-3.10
2018-12-31T09:31:11.547Z,-3.00
2018-12-31T09:33:40.229Z,-3.00
2018-12-31T09:36:08.875Z,-3.00
2018-12-31T09:38:37.527Z,-3.10
2018-12-31T09:41:06.417Z,-3.00
2018-12-31T09:43:35.174Z,-3.20
2018-12-31T09:46:03.846Z,-3.20
2018-12-31T09:48:32.544Z,-3.20
2018-12-31T09:51:01.208Z,-3.20
2018-12-31T09:53:29.882Z,-3.20
2018-12-31T09:55:58.546Z,-3.20
2018-12-31T09:58:27.366Z,-3.20
2018-12-31T10:00:55.986Z,-3.10
2018-12-31T10:03:24.646Z,-3.00
2018-12-31T10:05:53.322Z,-2.90
2018-12-31T10:08:21.994Z,-2.80
2018-12-31T10:10:50.662Z,-3.00
2018-12-31T10:13:19.392Z,-2.90
2018-12-31T10:15:48.329Z,-3.00
2018-12-31T10:18:17.339Z,-3.00
2018-12-31T10:20:45.998Z,-3.00
2018-12-31T10:23:14.680Z,-2.80
2018-12-31T10:25:43.524Z,-2.90
2018-12-31T10:28:12.208Z,-2.80
2018-12-31T10:30:40.873Z,-2.70
2018-12-31T10:33:10.172Z,-2.70
2018-12-31T10:35:38.825Z,-2.60
2018-12-31T10:38:07.514Z,-2.40
2018-12-31T10:40:36.381Z,-2.40
2018-12-31T10:43:05.059Z,-2.40
2018-12-31T10:45:33.711Z,-2.40
2018-12-31T10:48:02.436Z,-2.40
2018-12-31T10:50:31.106Z,-2.40
2018-12-31T10:52:59.755Z,-2.60
2018-12-31T10:55:28.624Z,-2.60
2018-12-31T10:57:57.364Z,-2.60
2018-12-31T11:00:26.068Z,-2.70
2018-12-31T11:02:55.282Z,-2.70
2018-12-31T11:05:23.912Z,-2.70
2018-12-31T11:07:52.638Z,-2.80
2018-12-31T11:10:21.398Z,-2.70
2018-12-31T11:12:50.023Z,-2.70
2018-12-31T11:15:21.214Z,-2.70
2018-12-31T11:17:49.947Z,-2.70
2018-12-31T11:20:18.682Z,-2.60
2018-12-31T11:22:47.614Z,-2.60
2018-12-31T11:25:16.316Z,-2.50
2018-12-31T11:27:44.998Z,-2.60
2018-12-31T11:30:14.134Z,-2.50
2018-12-31T11:32:42.789Z,-2.40
2018-12-31T11:35:11.467Z,-2.40
2018-12-31T11:37:40.168Z,-2.40
2018-12-31T11:40:08.816Z,-2.40
2018-12-31T11:42:38.021Z,-2.40
2018-12-31T11:45:07.651Z,-2.60
2018-12-31T11:47:36.381Z,-2.70
2018-12-31T11:50:05.071Z,-2.60
2018-12-31T11:52:33.827Z,-2.70
2018-12-31T11:55:03.804Z,-2.60
2018-12-31T11:57:32.458Z,-2.60
2018-12-31T12:00:01.111Z,-2.60
2018-12-31T12:02:29.803Z,-2.70
2018-12-31T12:04:58.444Z,-2.70
2018-12-31T12:07:27.177Z,-2.70
2018-12-31T12:09:55.850Z,-2.70
2018-12-31T12:12:24.777Z,-2.60
2018-12-31T12:14:53.458Z,-2.60
2018-12-31T12:17:22.130Z,-2.60
2018-12-31T12:19:50.855Z,-2.50
2018-12-31T12:22:19.585Z,-2.50
2018-12-31T12:24:48.595Z,-2.40
2018-12-31T12:27:17.316Z,-2.40
2018-12-31T12:29:45.983Z,-2.40
2018-12-31T12:32:14.653Z,-2.40
2018-12-31T12:34:43.387Z,-2.50
2018-12-31T12:37:12.722Z,-2.40
2018-12-31T12:39:41.393Z,-2.40
2018-12-31T12:42:10.555Z,-2.40
2018-12-31T12:44:39.251Z,-2.40
2018-12-31T12:47:08.342Z,-2.50
2018-12-31T12:49:37.403Z,-2.40
2018-12-31T12:52:06.072Z,-2.40
2018-12-31T12:54:34.736Z,-2.40
2018-12-31T12:57:03.424Z,-2.40
2018-12-31T12:59:32.173Z,-2.50
2018-12-31T13:02:01.264Z,-2.50
2018-12-31T13:04:29.922Z,-2.50
2018-12-31T13:06:58.621Z,-2.50
2018-12-31T13:09:27.271Z,-2.60
2018-12-31T13:11:56.633Z,-2.60
2018-12-31T13:14:25.622Z,-2.60
2018-12-31T13:16:54.568Z,-2.60
2018-12-31T13:19:23.245Z,-2.70
2018-12-31T13:21:51.908Z,-2.70
2018-12-31T13:24:20.679Z,-2.70
2018-12-31T13:26:50.011Z,-2.60
2018-12-31T13:29:18.817Z,-2.70
2018-12-31T13:31:47.532Z,-2.70
2018-12-31T13:34:16.181Z,-2.80
2018-12-31T13:36:44.828Z,-2.80
2018-12-31T13:39:14.006Z,-2.80
2018-12-31T13:41:43.093Z,-2.80
2018-12-31T13:44:11.842Z,-2.80
2018-12-31T13:46:40.528Z,-2.80
2018-12-31T13:49:09.212Z,-2.80
2018-12-31T13:51:39.559Z,-2.80
2018-12-31T13:54:08.745Z,-2.80
2018-12-31T13:56:37.399Z,-2.90
2018-12-31T13:59:06.112Z,-2.90
2018-12-31T14:01:34.795Z,-2.90
2018-12-31T14:04:04.001Z,-2.90
2018-12-31T14:06:33.431Z,-3.00
2018-12-31T14:09:05.380Z,-3.00
2018-12-31T14:11:35.527Z,-3.00
2018-12-31T14:14:04.255Z,-3.00
2018-12-31T14:16:32.984Z,-3.00
2018-12-31T14:19:03.533Z,-3.10
2018-12-31T14:21:32.431Z,-3.00
2018-12-31T14:24:01.235Z,-3.00
2018-12-31T14:26:45.889Z,-3.00
2018-12-31T14:29:14.600Z,-3.00
2018-12-31T14:31:43.373Z,-3.10
2018-12-31T14:34:14.533Z,-3.00
2018-12-31T14:36:46.902Z,-3.00
2018-12-31T14:39:20.201Z,-3.00
2018-12-31T14:41:48.906Z,-3.00
2018-12-31T14:44:17.642Z,-3.00
2018-12-31T14:46:46.302Z,-3.00
2018-12-31T14:49:15.090Z,-3.10
2018-12-31T14:51:43.854Z,-3.10
2018-12-31T14:54:12.894Z,-3.10
2018-12-31T14:56:41.656Z,-3.20
2018-12-31T14:59:10.334Z,-3.20
2018-12-31T15:01:39.588Z,-3.20
2018-12-31T15:04:08.436Z,-3.20
2018-12-31T15:06:37.237Z,-3.20
2018-12-31T15:09:07.643Z,-3.10
2018-12-31T15:11:36.307Z,-3.20
2018-12-31T15:14:05.919Z,-3.20
2018-12-31T15:16:34.653Z,-3.20
2018-12-31T15:19:03.336Z,-3.10
2018-12-31T15:21:31.999Z,-3.10
2018-12-31T15:24:00.679Z,-3.20
2018-12-31T15:26:29.545Z,-3.10
2018-12-31T15:28:58.232Z,-3.20
2018-12-31T15:31:26.909Z,-3.20
2018-12-31T15:33:56.755Z,-3.20
2018-12-31T15:36:25.553Z,-3.20
2018-12-31T15:38:54.673Z,-3.20
2018-12-31T15:41:23.432Z,-3.20
2018-12-31T15:43:53.513Z,-3.20
2018-12-31T15:46:22.215Z,-3.20
2018-12-31T15:48:50.923Z,-3.10
2018-12-31T15:51:19.629Z,-3.20
2018-12-31T15:53:48.330Z,-3.20
2018-12-31T15:56:16.997Z,-3.20
2018-12-31T15:58:45.719Z,-3.20
2018-12-31T16:01:14.368Z,-3.20
2018-12-31T16:03:43.285Z,-3.20
2018-12-31T16:06:11.958Z,-3.20
2018-12-31T16:08:40.644Z,-3.20
2018-12-31T16:11:09.535Z,-3.20
2018-12-31T16:13:38.288Z,-3.20
2018-12-31T16:16:07.465Z,-3.20
2018-12-31T16:18:36.151Z,-3.10
2018-12-31T16:21:06.387Z,-3.10
2018-12-31T16:23:35.057Z,-3.20
2018-12-31T16:26:03.775Z,-3.20
2018-12-31T16:28:33.080Z,-3.20
2018-12-31T16:31:01.744Z,-3.30
2018-12-31T16:33:30.430Z,-3.20
2018-12-31T16:35:59.304Z,-3.30
2018-12-31T16:38:30.220Z,-3.30
2018-12-31T16:40:59.201Z,-3.30
2018-12-31T16:43:27.946Z,-3.30
2018-12-31T16:45:56.842Z,-3.30
2018-12-31T16:48:25.515Z,-3.30
2018-12-31T16:50:54.206Z,-3.30
2018-12-31T16:53:23.199Z,-3.40
2018-12-31T16:55:55.684Z,-3.40
2018-12-31T16:58:24.301Z,-3.40
2018-12-31T17:00:52.989Z,-3.40
2018-12-31T17:03:21.808Z,-3.40
2018-12-31T17:05:51.443Z,-3.40
2018-12-31T17:08:20.136Z,-3.50
2018-12-31T17:10:48.855Z,-3.50
2018-12-31T17:13:17.585Z,-3.50
2018-12-31T17:15:46.255Z,-3.50
2018-12-31T17:18:14.952Z,-3.50
2018-12-31T17:20:43.821Z,-3.60
2018-12-31T17:23:12.493Z,-3.60
2018-12-31T17:25:44.467Z,-3.60
2018-12-31T17:28:13.236Z,-3.60
2018-12-31T17:30:41.975Z,-3.60
2018-12-31T17:33:10.673Z,-3.60
2018-12-31T17:35:39.422Z,-3.60
2018-12-31T17:38:08.195Z,-3.60
2018-12-31T17:40:36.868Z,-3.50
2018-12-31T17:43:06.129Z,-3.60
2018-12-31T17:45:34.999Z,-3.50
2018-12-31T17:48:03.760Z,-3.50
2018-12-31T17:50:32.468Z,-3.30
2018-12-31T17:53:01.207Z,-3.30
2018-12-31T17:55:29.905Z,-3.40
2018-12-31T17:57:58.588Z,-3.50
2018-12-31T18:00:27.260Z,-3.50
2018-12-31T18:02:55.954Z,-3.60
2018-12-31T18:05:24.653Z,-3.60
2018-12-31T18:07:53.334Z,-3.70
2018-12-31T18:10:22.438Z,-3.70
2018-12-31T18:12:51.131Z,-3.70
2018-12-31T18:15:19.857Z,-3.70
2018-12-31T18:17:48.545Z,-3.60
2018-12-31T18:20:17.204Z,-3.60
2018-12-31T18:22:46.387Z,-3.60
2018-12-31T18:25:15.053Z,-3.60
2018-12-31T18:27:43.785Z,-3.70
2018-12-31T18:30:12.656Z,-3.60
2018-12-31T18:32:42.897Z,-3.70
2018-12-31T18:35:12.268Z,-3.70
2018-12-31T18:37:41.962Z,-3.70
2018-12-31T18:40:11.182Z,-3.70
2018-12-31T18:42:39.848Z,-3.70
2018-12-31T18:45:08.866Z,-3.70
2018-12-31T18:47:37.911Z,-3.70
2018-12-31T18:50:06.597Z,-3.60
2018-12-31T18:52:35.257Z,-3.70
2018-12-31T18:55:05.461Z,-3.70
2018-12-31T18:57:34.190Z,-3.80
2018-12-31T19:00:03.270Z,-3.80
2018-12-31T19:02:31.945Z,-3.80
2018-12-31T19:05:00.646Z,-3.80
2018-12-31T19:07:29.411Z,-3.80
2018-12-31T19:09:58.123Z,-3.80
2018-12-31T19:12:29.401Z,-3.90
2018-12-31T19:14:58.066Z,-3.80
2018-12-31T19:17:26.757Z,-3.90
2018-12-31T19:19:55.469Z,-3.90
2018-12-31T19:22:24.125Z,-3.90
2018-12-31T19:24:53.246Z,-4.00
2018-12-31T19:27:22.987Z,-4.00
2018-12-31T19:29:51.745Z,-4.00
2018-12-31T19:32:20.483Z,-4.00
2018-12-31T19:34:49.212Z,-4.10
2018-12-31T19:37:18.081Z,-4.00
2018-12-31T19:39:49.566Z,-3.90
2018-12-31T19:42:18.360Z,-4.00
2018-12-31T19:44:47.047Z,-3.90
2018-12-31T19:47:15.730Z,-4.00
2018-12-31T19:49:44.416Z,-4.00
2018-12-31T19:52:13.100Z,-4.00
2018-12-31T19:54:41.807Z,-4.00
2018-12-31T19:57:13.227Z,-4.00
2018-12-31T19:59:41.983Z,-4.10
2018-12-31T20:02:12.248Z,-4.10
2018-12-31T20:04:41.321Z,-4.00
2018-12-31T20:07:10.078Z,-3.80
2018-12-31T20:09:38.789Z,-3.60
2018-12-31T20:12:07.454Z,-3.60
2018-12-31T20:14:36.131Z,-3.70
2018-12-31T20:17:05.509Z,-3.90
2018-12-31T20:19:34.290Z,-3.90
2018-12-31T20:22:03.018Z,-4.00
2018-12-31T20:24:31.697Z,-4.00
2018-12-31T20:27:00.389Z,-4.00
2018-12-31T20:29:35.607Z,-4.00
2018-12-31T20:32:04.348Z,-4.00
2018-12-31T20:34:33.112Z,-4.00
2018-12-31T20:37:01.776Z,-4.00
2018-12-31T20:39:30.614Z,-4.00
2018-12-31T20:42:00.868Z,-4.00
2018-12-31T20:44:29.565Z,-4.00
2018-12-31T20:46:58.264Z,-4.10
2018-12-31T20:49:28.297Z,-4.10
2018-12-31T20:51:58.126Z,-4.10
2018-12-31T20:54:27.822Z,-4.00
2018-12-31T20:56:56.805Z,-4.00
2018-12-31T20:59:25.609Z,-4.00
2018-12-31T21:01:57.394Z,-4.00
2018-12-31T21:04:26.869Z,-4.00
2018-12-31T21:06:55.697Z,-4.00
2018-12-31T21:09:25.159Z,-4.00
2018-12-31T21:11:53.900Z,-3.90
2018-12-31T21:14:22.627Z,-3.90
2018-12-31T21:16:51.361Z,-3.90
2018-12-31T21:19:20.020Z,-3.90
2018-12-31T21:21:49.180Z,-3.90
2018-12-31T21:24:17.964Z,-3.90
2018-12-31T21:26:47.503Z,-3.80
2018-12-31T21:29:18.018Z,-3.80
2018-12-31T21:31:46.818Z,-3.80
2018-12-31T21:34:17.742Z,-3.90
2018-12-31T21:36:46.430Z,-3.90
2018-12-31T21:39:15.110Z,-3.90
2018-12-31T21:41:43.800Z,-4.00
2018-12-31T21:44:12.890Z,-4.00
2018-12-31T21:46:41.662Z,-4.00
2018-12-31T21:49:12.310Z,-4.00
2018-12-31T21:51:42.214Z,-3.90
2018-12-31T21:54:10.913Z,-3.90
2018-12-31T21:56:39.577Z,-3.90
2018-12-31T21:59:08.245Z,-3.90
2018-12-31T22:01:37.329Z,-3.90
2018-12-31T22:04:06.004Z,-4.00
2018-12-31T22:06:34.867Z,-4.00
2018-12-31T22:09:03.591Z,-4.00
2018-12-31T22:11:32.267Z,-4.00
2018-12-31T22:14:01.149Z,-4.00
2018-12-31T22:16:29.820Z,-4.00
2018-12-31T22:18:58.507Z,-4.00
2018-12-31T22:21:27.259Z,-3.90
2018-12-31T22:23:55.918Z,-3.80
2018-12-31T22:26:28.380Z,-3.90
2018-12-31T22:28:57.081Z,-3.90
2018-12-31T22:31:25.754Z,-3.90
2018-12-31T22:33:54.723Z,-3.90
2018-12-31T22:36:23.431Z,-3.90
2018-12-31T22:38:52.618Z,-3.90
2018-12-31T22:41:22.631Z,-3.90
2018-12-31T22:43:51.318Z,-3.90
2018-12-31T22:46:20.297Z,-4.00
2018-12-31T22:48:51.038Z,-3.90
2018-12-31T22:51:20.523Z,-3.90
2018-12-31T22:53:53.118Z,-4.00
2018-12-31T22:56:21.785Z,-3.90
2018-12-31T22:58:53.149Z,-3.90
2018-12-31T23:01:21.808Z,-3.90
2018-12-31T23:03:50.917Z,-4.00
2018-12-31T23:06:19.597Z,-4.00
2018-12-31T23:08:56.354Z,-3.90
2018-12-31T23:11:43.195Z,-3.90
2018-12-31T23:17:19.130Z,-3.90
2018-12-31T23:19:48.328Z,-3.90
2018-12-31T23:22:17.050Z,-4.00
2018-12-31T23:24:45.759Z,-4.00
2018-12-31T23:27:14.536Z,-4.00
2018-12-31T23:29:43.227Z,-3.90
2018-12-31T23:32:12.364Z,-4.00
2018-12-31T23:34:41.060Z,-4.00
2018-12-31T23:37:09.745Z,-4.00
2018-12-31T23:39:38.472Z,-4.00
2018-12-31T23:42:07.156Z,-4.10
2018-12-31T23:44:35.867Z,-4.00
2018-12-31T23:47:04.573Z,-4.00
2018-12-31T23:49:33.253Z,-4.00
2018-12-31T23:52:01.923Z,-3.90
2018-12-31T23:54:30.637Z,-4.00
2018-12-31T23:56:59.314Z,-4.00
2018-12-31T23:59:28.005Z,-4.00
